Time;durP1;ratioP1;P1;durP2;ratioP2;P2;SDS_P1;SDS_P2;PMS_P1;PMS_P2;Temp;Humidity;BMP_temperature;BMP_pressure;BME280_temperature;BME280_humidity;BME280_pressure;Samples;Min_cycle;Max_cycle;Signal;HPM_P1;HPM_P2
2023/03/31 00:00:27;;;;;;;;;;;19.40;54.10;;;;;;4996548;28;19921;-74
2023/03/31 00:02:54;;;;;;;;;;;19.40;54.10;;;;;;5016749;28;19914;-74
2023/03/31 00:05:23;;;;;;;;;;;19.40;54.20;;;;;;4996210;28;19917;-74
2023/03/31 00:07:52;;;;;;;;;;;19.40;54.10;;;;;;5005533;28;20373;-74
2023/03/31 00:10:18;;;;;;;;;;;19.40;54.70;;;;;;5009205;28;19970;-74
2023/03/31 00:12:43;;;;;;;;;;;19.40;54.20;;;;;;4988318;28;20423;-74
2023/03/31 00:15:09;;;;;;;;;;;19.40;54.00;;;;;;5012827;28;20335;-74
2023/03/31 00:17:34;;;;;;;;;;;19.40;54.00;;;;;;5009649;28;20004;-74
2023/03/31 00:20:04;;;;;;;;;;;19.40;54.00;;;;;;5011588;28;19914;-74
2023/03/31 00:22:29;;;;;;;;;;;19.40;54.00;;;;;;5013603;28;20443;-74
2023/03/31 00:24:55;;;;;;;;;;;19.40;54.00;;;;;;5018518;28;19910;-74
2023/03/31 00:27:20;;;;;;;;;;;19.30;54.10;;;;;;5011771;28;19921;-74
2023/03/31 00:29:46;;;;;;;;;;;19.40;54.20;;;;;;5011721;28;20359;-74
2023/03/31 00:32:13;;;;;;;;;;;19.30;54.20;;;;;;5029674;28;19947;-74
2023/03/31 00:34:39;;;;;;;;;;;19.30;54.20;;;;;;5031256;28;19973;-74
2023/03/31 00:37:05;;;;;;;;;;;19.30;54.40;;;;;;5027180;28;20294;-74
2023/03/31 00:39:34;;;;;;;;;;;19.30;54.40;;;;;;5011131;28;19909;-74
2023/03/31 00:42:02;;;;;;;;;;;19.20;54.30;;;;;;5012974;28;19916;-74
2023/03/31 00:44:29;;;;;;;;;;;19.20;54.30;;;;;;5007835;28;20398;-74
2023/03/31 00:46:54;;;;;;;;;;;19.30;54.30;;;;;;4998886;28;19937;-73
2023/03/31 00:49:33;;;;;;;;;;;19.20;54.60;;;;;;5008068;28;19925;-74
2023/03/31 00:52:01;;;;;;;;;;;19.20;54.30;;;;;;4999520;28;20371;-74
2023/03/31 00:54:26;;;;;;;;;;;19.20;54.30;;;;;;4995164;28;19918;-74
2023/03/31 00:56:54;;;;;;;;;;;19.20;54.30;;;;;;5007328;28;19918;-74
2023/03/31 00:59:19;;;;;;;;;;;19.20;54.30;;;;;;5003160;28;19994;-74
2023/03/31 01:01:45;;;;;;;;;;;19.20;54.30;;;;;;5004712;28;19913;-74
2023/03/31 01:04:10;;;;;;;;;;;19.20;54.30;;;;;;5005671;28;19920;-74
2023/03/31 01:06:39;;;;;;;;;;;19.10;54.20;;;;;;4996512;28;20395;-74
2023/03/31 01:09:05;;;;;;;;;;;19.10;54.30;;;;;;4992057;28;20033;-74
2023/03/31 01:11:31;;;;;;;;;;;19.10;54.30;;;;;;5010627;28;19921;-74
2023/03/31 01:13:56;;;;;;;;;;;19.10;54.20;;;;;;5000616;28;19972;-74
2023/03/31 01:16:22;;;;;;;;;;;19.10;54.20;;;;;;4999295;28;19920;-74
2023/03/31 01:18:48;;;;;;;;;;;19.20;54.20;;;;;;5033115;28;19970;-74
2023/03/31 01:21:22;;;;;;;;;;;19.20;54.10;;;;;;5011866;28;19917;-74
2023/03/31 01:23:47;;;;;;;;;;;19.30;54.00;;;;;;5018284;28;20044;-74
2023/03/31 01:26:31;;;;;;;;;;;19.30;53.80;;;;;;5027424;28;19926;-74
2023/03/31 01:28:58;;;;;;;;;;;19.30;53.80;;;;;;5018308;28;20402;-73
2023/03/31 01:31:36;;;;;;;;;;;19.40;53.80;;;;;;5019141;28;19913;-74
2023/03/31 01:34:16;;;;;;;;;;;19.30;53.60;;;;;;5022146;28;19912;-74
2023/03/31 01:36:42;;;;;;;;;;;19.40;53.50;;;;;;5015697;28;19956;-74
2023/03/31 01:39:10;;;;;;;;;;;19.50;53.40;;;;;;5027373;28;19921;-75
2023/03/31 01:41:49;;;;;;;;;;;19.50;53.40;;;;;;5022301;28;19917;-74
2023/03/31 01:44:29;;;;;;;;;;;19.50;53.30;;;;;;5015034;28;19952;-74
2023/03/31 01:46:56;;;;;;;;;;;19.50;53.20;;;;;;5011642;28;19917;-74
2023/03/31 01:49:37;;;;;;;;;;;19.50;53.20;;;;;;5001607;28;19918;-75
2023/03/31 01:52:04;;;;;;;;;;;19.50;53.20;;;;;;5023538;28;19917;-74
2023/03/31 01:54:29;;;;;;;;;;;19.50;53.20;;;;;;5026777;28;20310;-75
2023/03/31 01:56:58;;;;;;;;;;;19.50;53.20;;;;;;5018940;28;19913;-74
2023/03/31 01:59:33;;;;;;;;;;;19.50;53.30;;;;;;5001263;28;19917;-74
2023/03/31 02:01:59;;;;;;;;;;;19.40;53.10;;;;;;5009506;28;20042;-74
2023/03/31 02:04:27;;;;;;;;;;;19.40;53.20;;;;;;5010271;27;19920;-74
2023/03/31 02:06:55;;;;;;;;;;;19.30;53.10;;;;;;5001985;28;19937;-74
2023/03/31 02:09:22;;;;;;;;;;;19.40;53.20;;;;;;5012124;28;20005;-75
2023/03/31 02:11:47;;;;;;;;;;;19.30;53.20;;;;;;5011874;28;19940;-74
2023/03/31 02:14:17;;;;;;;;;;;19.30;54.00;;;;;;5004782;28;19921;-74
2023/03/31 02:16:46;;;;;;;;;;;19.30;53.20;;;;;;4996639;28;19918;-74
2023/03/31 02:19:12;;;;;;;;;;;19.40;53.20;;;;;;5010308;28;20302;-76
2023/03/31 02:21:38;;;;;;;;;;;19.30;53.30;;;;;;5010393;27;20371;-74
2023/03/31 02:24:05;;;;;;;;;;;19.30;53.10;;;;;;4999729;28;19917;-74
2023/03/31 02:26:32;;;;;;;;;;;19.40;53.20;;;;;;5012749;27;19925;-74
2023/03/31 02:28:58;;;;;;;;;;;19.30;53.10;;;;;;5006064;28;20025;-75
2023/03/31 02:31:23;;;;;;;;;;;19.30;53.20;;;;;;5016704;28;19949;-74
2023/03/31 02:33:49;;;;;;;;;;;19.30;53.30;;;;;;5007640;28;20827;-74
2023/03/31 02:36:14;;;;;;;;;;;19.30;53.30;;;;;;5003851;28;20008;-74
2023/03/31 02:38:45;;;;;;;;;;;19.30;53.30;;;;;;5017484;28;19917;-75
2023/03/31 02:41:10;;;;;;;;;;;19.30;53.30;;;;;;5007004;28;20049;-74
2023/03/31 02:43:36;;;;;;;;;;;19.30;53.30;;;;;;5004321;28;20448;-75
2023/03/31 02:46:01;;;;;;;;;;;19.20;53.30;;;;;;4993493;28;20028;-74
2023/03/31 02:48:28;;;;;;;;;;;19.20;53.40;;;;;;5003851;28;19925;-74
2023/03/31 02:50:58;;;;;;;;;;;19.20;53.50;;;;;;4995676;28;19925;-74
2023/03/31 02:53:23;;;;;;;;;;;19.10;53.40;;;;;;5015033;28;19921;-74
2023/03/31 02:55:56;;;;;;;;;;;19.10;53.50;;;;;;5004766;28;19914;-74
2023/03/31 02:58:27;;;;;;;;;;;19.10;53.60;;;;;;5004323;28;19977;-74
2023/03/31 03:00:57;;;;;;;;;;;19.10;53.60;;;;;;5007232;28;19917;-75
2023/03/31 03:03:28;;;;;;;;;;;19.10;53.50;;;;;;5012078;28;19939;-75
2023/03/31 03:05:58;;;;;;;;;;;19.10;53.50;;;;;;5005884;28;20551;-74
2023/03/31 03:08:23;;;;;;;;;;;19.10;53.50;;;;;;5007963;28;19932;-74
2023/03/31 03:11:00;;;;;;;;;;;19.10;53.50;;;;;;5008547;28;19918;-75
2023/03/31 03:13:46;;;;;;;;;;;19.10;53.50;;;;;;4992708;28;20058;-75
2023/03/31 03:16:20;;;;;;;;;;;19.10;53.60;;;;;;5021915;28;19919;-74
2023/03/31 03:18:56;;;;;;;;;;;19.10;53.50;;;;;;5034412;28;19913;-75
2023/03/31 03:21:21;;;;;;;;;;;19.10;54.10;;;;;;5066145;28;20334;-74
2023/03/31 03:23:47;;;;;;;;;;;19.10;53.40;;;;;;5003069;28;19917;-74
2023/03/31 03:26:12;;;;;;;;;;;19.10;54.00;;;;;;5026709;28;19958;-74
2023/03/31 03:28:37;;;;;;;;;;;19.10;53.40;;;;;;5024181;28;19980;-74
2023/03/31 03:31:03;;;;;;;;;;;19.10;53.50;;;;;;5010825;28;19917;-74
2023/03/31 03:33:28;;;;;;;;;;;19.10;53.50;;;;;;5026785;28;19916;-75
2023/03/31 03:35:54;;;;;;;;;;;19.00;53.40;;;;;;5043108;28;20417;-75
2023/03/31 03:38:19;;;;;;;;;;;19.10;53.50;;;;;;5008849;28;19970;-75
2023/03/31 03:40:45;;;;;;;;;;;19.10;53.50;;;;;;5020013;28;19909;-75
2023/03/31 03:43:11;;;;;;;;;;;19.00;53.50;;;;;;5012114;28;20473;-75
2023/03/31 03:45:36;;;;;;;;;;;19.00;53.60;;;;;;5044907;28;20387;-75
2023/03/31 03:48:02;;;;;;;;;;;19.10;53.60;;;;;;4996045;28;19921;-74
2023/03/31 03:50:27;;;;;;;;;;;19.00;53.50;;;;;;5014151;28;20448;-74
2023/03/31 03:52:53;;;;;;;;;;;19.00;53.50;;;;;;5007420;28;19959;-74
2023/03/31 03:55:18;;;;;;;;;;;18.90;53.60;;;;;;4997012;28;19921;-74
2023/03/31 03:57:44;;;;;;;;;;;18.90;53.60;;;;;;4998413;28;20299;-75
2023/03/31 04:00:12;;;;;;;;;;;18.90;53.70;;;;;;4997541;28;19913;-75
2023/03/31 04:02:38;;;;;;;;;;;18.90;53.70;;;;;;5007847;27;19939;-75
2023/03/31 04:05:04;;;;;;;;;;;18.90;54.00;;;;;;4989917;28;19913;-75
2023/03/31 04:07:29;;;;;;;;;;;18.80;53.80;;;;;;5007218;28;19917;-74
2023/03/31 04:09:55;;;;;;;;;;;18.80;53.80;;;;;;5012762;28;20435;-75
2023/03/31 04:12:20;;;;;;;;;;;18.80;53.70;;;;;;4997801;28;20443;-74
2023/03/31 04:14:45;;;;;;;;;;;18.80;53.70;;;;;;5007827;28;20294;-74
2023/03/31 04:17:14;;;;;;;;;;;18.80;53.60;;;;;;5004226;28;20510;-75
2023/03/31 04:19:41;;;;;;;;;;;18.90;53.60;;;;;;5014748;27;19973;-75
2023/03/31 04:22:10;;;;;;;;;;;18.90;53.50;;;;;;4997695;28;19921;-75
2023/03/31 04:24:37;;;;;;;;;;;18.90;53.40;;;;;;5020720;27;20556;-75
2023/03/31 04:27:03;;;;;;;;;;;18.90;53.30;;;;;;5004270;28;19928;-74
2023/03/31 04:29:32;;;;;;;;;;;18.90;53.30;;;;;;5008491;28;20557;-74
2023/03/31 04:31:57;;;;;;;;;;;18.90;53.30;;;;;;5014605;27;19960;-75
2023/03/31 04:34:25;;;;;;;;;;;18.90;53.20;;;;;;5013833;27;19956;-75
2023/03/31 04:36:51;;;;;;;;;;;18.90;53.30;;;;;;5000625;28;19913;-75
2023/03/31 04:39:17;;;;;;;;;;;18.90;53.30;;;;;;5004131;28;20382;-75
2023/03/31 04:41:43;;;;;;;;;;;18.90;53.20;;;;;;5014031;27;19948;-75
2023/03/31 04:44:08;;;;;;;;;;;18.90;53.30;;;;;;5006997;28;19948;-75
2023/03/31 04:46:34;;;;;;;;;;;18.90;53.40;;;;;;5004491;28;19918;-75
2023/03/31 04:49:00;;;;;;;;;;;18.90;53.40;;;;;;4997909;28;20338;-75
2023/03/31 04:51:26;;;;;;;;;;;18.80;53.40;;;;;;4991977;28;19959;-75
2023/03/31 04:53:51;;;;;;;;;;;18.90;53.40;;;;;;5019964;28;19914;-75
2023/03/31 04:56:17;;;;;;;;;;;18.90;53.40;;;;;;5006571;28;19994;-75
2023/03/31 04:58:43;;;;;;;;;;;18.90;53.30;;;;;;5005777;28;19925;-74
2023/03/31 05:01:09;;;;;;;;;;;18.80;53.40;;;;;;5008845;28;20309;-75
2023/03/31 05:03:34;;;;;;;;;;;18.80;53.40;;;;;;5008040;28;19917;-75
2023/03/31 05:06:00;;;;;;;;;;;18.80;53.40;;;;;;5016500;28;19957;-75
2023/03/31 05:08:29;;;;;;;;;;;18.80;53.40;;;;;;4997557;28;19917;-75
2023/03/31 05:10:54;;;;;;;;;;;18.80;53.60;;;;;;5006865;28;20696;-75
2023/03/31 05:13:20;;;;;;;;;;;18.80;53.20;;;;;;5001732;28;19918;-75
2023/03/31 05:15:46;;;;;;;;;;;18.80;53.40;;;;;;5008776;28;19971;-75
2023/03/31 05:18:12;;;;;;;;;;;18.80;53.50;;;;;;5019451;28;19947;-75
2023/03/31 05:20:38;;;;;;;;;;;18.70;53.50;;;;;;5017537;28;19986;-75
2023/03/31 05:23:03;;;;;;;;;;;18.80;53.40;;;;;;5004893;28;19913;-75
2023/03/31 05:25:31;;;;;;;;;;;18.80;53.40;;;;;;5021228;28;19914;-75
2023/03/31 05:27:58;;;;;;;;;;;18.80;53.40;;;;;;5001965;28;19924;-75
2023/03/31 05:30:25;;;;;;;;;;;18.80;53.40;;;;;;5007342;28;19957;-75
2023/03/31 05:32:50;;;;;;;;;;;18.80;53.20;;;;;;5004011;28;19914;-74
2023/03/31 05:35:16;;;;;;;;;;;18.80;53.40;;;;;;5036713;28;19920;-74
2023/03/31 05:37:41;;;;;;;;;;;18.80;53.50;;;;;;5010767;28;19917;-75
2023/03/31 05:40:08;;;;;;;;;;;18.80;53.40;;;;;;5008232;28;19939;-75
2023/03/31 05:42:33;;;;;;;;;;;18.80;53.40;;;;;;5024092;28;19917;-74
2023/03/31 05:44:59;;;;;;;;;;;18.80;53.50;;;;;;5013737;28;19913;-75
2023/03/31 05:47:25;;;;;;;;;;;18.80;53.60;;;;;;4999989;28;19925;-75
2023/03/31 05:49:50;;;;;;;;;;;18.70;53.50;;;;;;4998873;28;20035;-74
2023/03/31 05:52:16;;;;;;;;;;;18.80;53.40;;;;;;5008422;28;19936;-75
2023/03/31 05:54:43;;;;;;;;;;;18.70;53.90;;;;;;5010735;28;19918;-74
2023/03/31 05:57:08;;;;;;;;;;;18.70;53.80;;;;;;5000627;28;19925;-74
2023/03/31 05:59:35;;;;;;;;;;;18.80;53.80;;;;;;5013006;28;20004;-75
2023/03/31 06:02:01;;;;;;;;;;;18.70;53.60;;;;;;5018699;27;19915;-75
2023/03/31 06:04:26;;;;;;;;;;;18.70;53.50;;;;;;5060795;28;20363;-75
2023/03/31 06:06:52;;;;;;;;;;;18.80;53.50;;;;;;5011963;28;19960;-75
2023/03/31 06:09:18;;;;;;;;;;;18.80;53.50;;;;;;4993277;28;19920;-75
2023/03/31 06:11:44;;;;;;;;;;;18.80;53.70;;;;;;5001885;28;19921;-76
2023/03/31 06:14:10;;;;;;;;;;;18.80;53.70;;;;;;5009697;28;19914;-75
2023/03/31 06:16:36;;;;;;;;;;;18.80;53.80;;;;;;5017515;28;19981;-75
2023/03/31 06:19:01;;;;;;;;;;;18.70;53.70;;;;;;5011933;28;20420;-75
2023/03/31 06:21:27;;;;;;;;;;;18.80;53.80;;;;;;5016130;28;19932;-75
2023/03/31 06:23:54;;;;;;;;;;;18.80;53.70;;;;;;5024255;28;19928;-75
2023/03/31 06:26:21;;;;;;;;;;;18.70;53.70;;;;;;5019768;28;19916;-75
2023/03/31 06:28:47;;;;;;;;;;;18.70;53.80;;;;;;5026012;28;19909;-75
2023/03/31 06:31:13;;;;;;;;;;;18.70;53.80;;;;;;5020600;28;20008;-75
2023/03/31 06:33:40;;;;;;;;;;;18.70;53.70;;;;;;5023465;27;20433;-75
2023/03/31 06:36:05;;;;;;;;;;;18.80;53.50;;;;;;5011666;28;19917;-75
2023/03/31 06:38:31;;;;;;;;;;;18.80;53.60;;;;;;5001576;28;19914;-75
2023/03/31 06:40:57;;;;;;;;;;;18.70;53.70;;;;;;5005663;28;19918;-75
2023/03/31 06:43:22;;;;;;;;;;;18.80;53.70;;;;;;5015219;28;20344;-75
2023/03/31 06:45:48;;;;;;;;;;;18.70;53.50;;;;;;5024575;28;19928;-75
2023/03/31 06:48:13;;;;;;;;;;;18.80;53.70;;;;;;5002612;28;19917;-76
2023/03/31 06:50:40;;;;;;;;;;;18.70;53.50;;;;;;5008074;28;19943;-75
2023/03/31 06:53:06;;;;;;;;;;;18.80;53.60;;;;;;5011600;28;19918;-75
2023/03/31 06:55:32;;;;;;;;;;;18.90;53.50;;;;;;5017136;28;20432;-76
2023/03/31 06:57:58;;;;;;;;;;;19.00;53.30;;;;;;5010093;28;19918;-75
2023/03/31 07:00:24;;;;;;;;;;;19.10;53.00;;;;;;4996206;28;19966;-75
2023/03/31 07:02:50;;;;;;;;;;;19.20;52.50;;;;;;5029946;28;19917;-75
2023/03/31 07:05:17;;;;;;;;;;;19.30;52.30;;;;;;5019876;28;19914;-76
2023/03/31 07:07:42;;;;;;;;;;;19.40;52.20;;;;;;5022746;28;20606;-75
2023/03/31 07:10:08;;;;;;;;;;;19.50;52.10;;;;;;5020520;28;19924;-75
2023/03/31 07:12:33;;;;;;;;;;;19.50;52.10;;;;;;5012865;28;19960;-75
2023/03/31 07:14:59;;;;;;;;;;;19.40;52.00;;;;;;5000056;28;19920;-76
2023/03/31 07:17:24;;;;;;;;;;;19.50;52.00;;;;;;5011421;28;19918;-75
2023/03/31 07:19:50;;;;;;;;;;;19.60;51.90;;;;;;5009165;28;20275;-76
2023/03/31 07:22:15;;;;;;;;;;;19.70;51.70;;;;;;5000130;28;19914;-75
2023/03/31 07:24:41;;;;;;;;;;;19.70;51.60;;;;;;5025713;28;20000;-75
2023/03/31 07:27:06;;;;;;;;;;;19.70;51.50;;;;;;4998564;28;20070;-76
2023/03/31 07:29:32;;;;;;;;;;;19.80;51.60;;;;;;5012430;28;19921;-75
2023/03/31 07:31:57;;;;;;;;;;;19.80;51.40;;;;;;5006880;28;19995;-76
2023/03/31 07:34:22;;;;;;;;;;;19.90;51.10;;;;;;5022583;28;19924;-76
2023/03/31 07:36:48;;;;;;;;;;;20.00;51.10;;;;;;5039941;28;19921;-75
2023/03/31 07:39:13;;;;;;;;;;;20.10;51.00;;;;;;5031270;28;19909;-76
2023/03/31 07:41:39;;;;;;;;;;;20.10;50.90;;;;;;5026813;28;20002;-75
2023/03/31 07:44:05;;;;;;;;;;;20.00;51.00;;;;;;5006576;28;20378;-76
2023/03/31 07:46:30;;;;;;;;;;;20.10;50.90;;;;;;5005407;28;20004;-75
2023/03/31 07:48:57;;;;;;;;;;;20.40;50.30;;;;;;5036580;28;20369;-75
2023/03/31 07:51:23;;;;;;;;;;;21.20;49.10;;;;;;5005433;28;20044;-75
2023/03/31 07:53:50;;;;;;;;;;;21.80;47.70;;;;;;5011858;28;20394;-75
2023/03/31 07:56:17;;;;;;;;;;;22.40;46.60;;;;;;5026434;28;19914;-75
2023/03/31 07:58:42;;;;;;;;;;;22.90;45.70;;;;;;4997341;28;20474;-75
2023/03/31 08:01:08;;;;;;;;;;;23.30;45.00;;;;;;5011134;28;19972;-75
2023/03/31 08:03:33;;;;;;;;;;;23.70;44.40;;;;;;5010315;28;20027;-76
2023/03/31 08:05:59;;;;;;;;;;;24.10;43.80;;;;;;5007183;28;19917;-75
2023/03/31 08:08:25;;;;;;;;;;;24.30;43.40;;;;;;5018625;28;19918;-76
2023/03/31 08:10:50;;;;;;;;;;;24.50;43.20;;;;;;4999675;28;19925;-76
2023/03/31 08:13:16;;;;;;;;;;;24.60;43.00;;;;;;4994932;28;19913;-76
2023/03/31 08:15:41;;;;;;;;;;;24.70;42.80;;;;;;4992604;28;19913;-76
2023/03/31 08:18:07;;;;;;;;;;;24.80;42.80;;;;;;5016587;28;19913;-76
2023/03/31 08:20:32;;;;;;;;;;;24.90;42.80;;;;;;5014639;28;19955;-76
2023/03/31 08:22:58;;;;;;;;;;;24.90;42.70;;;;;;5011101;28;19971;-75
2023/03/31 08:25:23;;;;;;;;;;;24.90;42.80;;;;;;5000818;28;19913;-75
2023/03/31 08:27:50;;;;;;;;;;;24.80;43.00;;;;;;5010234;28;19957;-75
2023/03/31 08:30:15;;;;;;;;;;;24.70;43.30;;;;;;5016434;28;19920;-74
2023/03/31 08:32:41;;;;;;;;;;;24.50;43.70;;;;;;5018475;28;19918;-75
2023/03/31 08:35:07;;;;;;;;;;;24.30;44.20;;;;;;5010713;28;19916;-75
2023/03/31 08:37:32;;;;;;;;;;;24.10;44.60;;;;;;5008979;28;19918;-75
2023/03/31 08:39:59;;;;;;;;;;;24.00;44.90;;;;;;4995816;28;19925;-75
2023/03/31 08:42:33;;;;;;;;;;;23.80;45.30;;;;;;4997527;28;19920;-75
2023/03/31 08:45:05;;;;;;;;;;;23.60;45.60;;;;;;5011366;28;19917;-75
2023/03/31 08:47:31;;;;;;;;;;;23.40;46.00;;;;;;5020064;28;19917;-75
2023/03/31 08:50:03;;;;;;;;;;;23.30;46.30;;;;;;5026179;28;19914;-75
2023/03/31 08:52:30;;;;;;;;;;;23.10;46.70;;;;;;5023039;28;19921;-75
2023/03/31 08:54:57;;;;;;;;;;;23.00;46.90;;;;;;5026622;28;20394;-74
2023/03/31 08:57:52;;;;;;;;;;;22.80;47.20;;;;;;5028330;28;19977;-75
2023/03/31 09:00:17;;;;;;;;;;;22.70;47.50;;;;;;4958597;28;19933;-75
2023/03/31 09:02:52;;;;;;;;;;;22.60;47.80;;;;;;5016784;27;20283;-75
2023/03/31 09:05:21;;;;;;;;;;;22.50;48.10;;;;;;5021146;28;19925;-75
2023/03/31 09:07:56;;;;;;;;;;;22.40;48.30;;;;;;5010735;28;19917;-75
2023/03/31 09:10:24;;;;;;;;;;;22.30;48.40;;;;;;4994630;28;19920;-75
2023/03/31 09:12:56;;;;;;;;;;;22.20;48.80;;;;;;5008012;28;19922;-75
2023/03/31 09:15:24;;;;;;;;;;;22.10;48.90;;;;;;5015972;28;19928;-75
2023/03/31 09:17:50;;;;;;;;;;;22.00;49.20;;;;;;5010053;28;20055;-74
2023/03/31 09:20:20;;;;;;;;;;;22.00;49.20;;;;;;5004380;28;20003;-75
2023/03/31 09:22:46;;;;;;;;;;;22.10;49.10;;;;;;5010915;28;19913;-75
2023/03/31 09:25:25;;;;;;;;;;;22.20;49.00;;;;;;4995004;28;19920;-75
2023/03/31 09:27:51;;;;;;;;;;;22.40;48.70;;;;;;5014531;28;19918;-75
2023/03/31 09:30:19;;;;;;;;;;;22.60;48.20;;;;;;5015403;28;19960;-75
2023/03/31 09:32:45;;;;;;;;;;;22.70;48.00;;;;;;5022680;27;19919;-75
2023/03/31 09:35:17;;;;;;;;;;;22.90;47.60;;;;;;5000150;28;19913;-75
2023/03/31 09:37:42;;;;;;;;;;;23.10;47.00;;;;;;5036106;28;19917;-75
2023/03/31 09:40:18;;;;;;;;;;;23.40;46.60;;;;;;5001502;28;19923;-75
2023/03/31 09:42:55;;;;;;;;;;;23.60;46.40;;;;;;5014851;28;19924;-75
2023/03/31 09:45:21;;;;;;;;;;;23.70;46.10;;;;;;5013484;28;19958;-75
2023/03/31 09:47:49;;;;;;;;;;;23.60;46.10;;;;;;5010457;28;19917;-75
2023/03/31 09:50:15;;;;;;;;;;;23.60;46.20;;;;;;5060259;28;19932;-75
2023/03/31 09:52:42;;;;;;;;;;;23.50;46.50;;;;;;5024777;28;20294;-75
2023/03/31 09:55:17;;;;;;;;;;;23.30;46.80;;;;;;5015175;28;19958;-75
2023/03/31 09:57:43;;;;;;;;;;;23.10;47.00;;;;;;5016736;28;19924;-75
2023/03/31 10:00:18;;;;;;;;;;;23.00;47.50;;;;;;5008997;28;20303;-75
2023/03/31 10:02:50;;;;;;;;;;;22.80;47.70;;;;;;5020757;28;19917;-75
2023/03/31 10:05:45;;;;;;;;;;;22.70;48.10;;;;;;5075839;28;19913;-75
2023/03/31 10:08:26;;;;;;;;;;;22.50;48.40;;;;;;5003252;28;19918;-74
2023/03/31 10:10:53;;;;;;;;;;;22.40;48.70;;;;;;5070724;28;20019;-74
2023/03/31 10:13:25;;;;;;;;;;;22.30;48.90;;;;;;5018378;28;19918;-75
2023/03/31 10:15:51;;;;;;;;;;;22.20;49.20;;;;;;4990850;28;19966;-75
2023/03/31 10:18:18;;;;;;;;;;;22.20;49.30;;;;;;5009110;28;19914;-75
2023/03/31 10:20:47;;;;;;;;;;;22.20;49.40;;;;;;5010752;28;19917;-75
2023/03/31 10:23:14;;;;;;;;;;;22.20;49.50;;;;;;5005770;28;19921;-75
2023/03/31 10:25:40;;;;;;;;;;;22.30;49.50;;;;;;5009028;28;19967;-75
2023/03/31 10:28:05;;;;;;;;;;;22.30;49.30;;;;;;5009555;28;19921;-75
2023/03/31 10:30:34;;;;;;;;;;;22.50;48.90;;;;;;5011556;28;19952;-75
2023/03/31 10:33:00;;;;;;;;;;;22.70;48.40;;;;;;5005408;28;19968;-74
2023/03/31 10:35:29;;;;;;;;;;;22.90;48.10;;;;;;5010214;28;19914;-75
2023/03/31 10:37:55;;;;;;;;;;;23.00;47.80;;;;;;5022175;28;19943;-75
2023/03/31 10:40:22;;;;;;;;;;;23.10;47.60;;;;;;4994055;28;19913;-75
2023/03/31 10:43:26;;;;;;;;;;;23.30;47.20;;;;;;5010257;28;19971;-76
2023/03/31 10:45:55;;;;;;;;;;;23.40;47.10;;;;;;4979321;28;19914;-76
2023/03/31 10:48:24;;;;;;;;;;;23.50;47.10;;;;;;4960148;28;20433;-75
2023/03/31 10:50:49;;;;;;;;;;;23.40;47.20;;;;;;5036906;28;19925;-75
2023/03/31 10:53:15;;;;;;;;;;;23.30;47.10;;;;;;5012675;28;19974;-75
2023/03/31 10:55:43;;;;;;;;;;;23.20;47.30;;;;;;4991448;28;20021;-75
2023/03/31 10:58:27;;;;;;;;;;;23.10;47.70;;;;;;5012764;28;19978;-75
2023/03/31 11:01:02;;;;;;;;;;;23.00;48.00;;;;;;5007248;28;19925;-75
2023/03/31 11:03:57;;;;;;;;;;;22.90;48.20;;;;;;5007739;28;19924;-75
2023/03/31 11:06:27;;;;;;;;;;;22.80;48.40;;;;;;5017646;28;19957;-75
2023/03/31 11:08:59;;;;;;;;;;;22.70;48.50;;;;;;5033927;28;19913;-75
2023/03/31 11:11:43;;;;;;;;;;;22.70;48.80;;;;;;5009173;28;20123;-76
2023/03/31 11:14:09;;;;;;;;;;;22.60;48.90;;;;;;5015525;28;19917;-76
2023/03/31 11:16:40;;;;;;;;;;;22.60;49.10;;;;;;5029024;28;20021;-75
2023/03/31 11:19:06;;;;;;;;;;;22.50;49.10;;;;;;5005451;28;20000;-75
2023/03/31 11:21:34;;;;;;;;;;;22.50;49.20;;;;;;5009645;28;19956;-75
2023/03/31 11:24:02;;;;;;;;;;;22.50;49.20;;;;;;5015900;28;19913;-75
2023/03/31 11:26:46;;;;;;;;;;;22.60;49.20;;;;;;5010170;28;20414;-75
2023/03/31 11:29:27;;;;;;;;;;;22.70;49.10;;;;;;5009732;28;19917;-75
2023/03/31 11:31:58;;;;;;;;;;;22.70;49.70;;;;;;4995126;28;19913;-75
2023/03/31 11:34:24;;;;;;;;;;;22.70;49.00;;;;;;5008582;28;19909;-76
2023/03/31 11:37:08;;;;;;;;;;;22.70;49.00;;;;;;5020632;28;19920;-76
2023/03/31 11:39:43;;;;;;;;;;;22.80;48.90;;;;;;5027900;28;19914;-75
2023/03/31 11:42:16;;;;;;;;;;;22.80;49.00;;;;;;5028281;28;19909;-76
2023/03/31 11:44:44;;;;;;;;;;;22.70;49.00;;;;;;5010687;28;20328;-75
2023/03/31 11:47:17;;;;;;;;;;;22.80;49.30;;;;;;5011786;28;19993;-76
2023/03/31 11:49:45;;;;;;;;;;;22.80;48.80;;;;;;5018582;28;19917;-76
2023/03/31 11:52:17;;;;;;;;;;;22.80;48.70;;;;;;4991923;28;19919;-76
2023/03/31 11:54:54;;;;;;;;;;;23.00;48.40;;;;;;5005857;28;20012;-76
2023/03/31 11:57:30;;;;;;;;;;;23.20;48.00;;;;;;5000027;28;20374;-75
2023/03/31 11:59:56;;;;;;;;;;;23.30;47.70;;;;;;5005623;28;20008;-75
2023/03/31 12:02:33;;;;;;;;;;;23.40;47.40;;;;;;5004638;28;19913;-75
2023/03/31 12:04:59;;;;;;;;;;;23.30;47.60;;;;;;5008196;28;20322;-76
2023/03/31 12:07:32;;;;;;;;;;;23.20;47.70;;;;;;5001132;28;19918;-75
2023/03/31 12:10:13;;;;;;;;;;;23.20;47.90;;;;;;5018060;28;19917;-75
2023/03/31 12:12:41;;;;;;;;;;;23.10;48.20;;;;;;5019017;28;19929;-75
2023/03/31 12:15:15;;;;;;;;;;;23.00;48.40;;;;;;5009460;28;19914;-75
2023/03/31 12:17:42;;;;;;;;;;;22.90;48.70;;;;;;5012417;28;20337;-76
2023/03/31 12:20:12;;;;;;;;;;;22.80;48.80;;;;;;5011851;28;19947;-76
2023/03/31 12:22:42;;;;;;;;;;;22.80;49.00;;;;;;4994859;28;20330;-76
2023/03/31 12:25:10;;;;;;;;;;;22.70;49.10;;;;;;5011031;28;19914;-75
2023/03/31 12:27:42;;;;;;;;;;;22.70;49.30;;;;;;5010747;28;19963;-75
2023/03/31 12:30:11;;;;;;;;;;;22.60;49.20;;;;;;5022282;28;19917;-75
2023/03/31 12:32:39;;;;;;;;;;;22.60;49.30;;;;;;5031911;27;19914;-75
2023/03/31 12:35:14;;;;;;;;;;;22.70;49.40;;;;;;5019119;28;19913;-75
2023/03/31 12:37:42;;;;;;;;;;;22.70;49.30;;;;;;5012434;28;19917;-75
2023/03/31 12:40:31;;;;;;;;;;;22.70;49.30;;;;;;5017452;28;20382;-75
2023/03/31 12:43:00;;;;;;;;;;;22.70;49.20;;;;;;5011470;28;19966;-76
2023/03/31 12:45:25;;;;;;;;;;;22.80;49.10;;;;;;5024216;28;19913;-75
2023/03/31 12:48:09;;;;;;;;;;;22.90;49.00;;;;;;5021823;28;20008;-75
2023/03/31 12:50:41;;;;;;;;;;;22.90;48.90;;;;;;5028807;28;19920;-75
2023/03/31 12:53:29;;;;;;;;;;;22.90;48.90;;;;;;5021493;28;19914;-75
2023/03/31 12:55:56;;;;;;;;;;;23.00;48.60;;;;;;4996525;28;20401;-75
2023/03/31 12:58:23;;;;;;;;;;;23.20;48.20;;;;;;5010360;28;20011;-75
2023/03/31 13:01:09;;;;;;;;;;;23.40;47.90;;;;;;5024318;28;19918;-75
2023/03/31 13:03:34;;;;;;;;;;;23.40;47.50;;;;;;5025340;28;20291;-75
2023/03/31 13:06:00;;;;;;;;;;;23.50;47.40;;;;;;5021828;28;19913;-74
2023/03/31 13:08:45;;;;;;;;;;;23.50;47.40;;;;;;5006123;28;19918;-75
2023/03/31 13:11:10;;;;;;;;;;;23.40;47.50;;;;;;5012443;28;19932;-75
2023/03/31 13:13:36;;;;;;;;;;;23.20;48.00;;;;;;5019528;28;19914;-74
2023/03/31 13:16:01;;;;;;;;;;;23.10;48.30;;;;;;4998817;28;19957;-75
2023/03/31 13:18:27;;;;;;;;;;;23.00;48.70;;;;;;5008444;28;19917;-75
2023/03/31 13:20:59;;;;;;;;;;;22.90;48.90;;;;;;5009920;28;19913;-75
2023/03/31 13:23:25;;;;;;;;;;;22.80;49.00;;;;;;5011039;28;19920;-75
2023/03/31 13:25:51;;;;;;;;;;;22.80;49.70;;;;;;5009671;28;20357;-75
2023/03/31 13:28:17;;;;;;;;;;;22.80;49.30;;;;;;5013156;28;19932;-77
2023/03/31 13:30:43;;;;;;;;;;;22.70;49.20;;;;;;5018522;28;19917;-75
2023/03/31 13:33:13;;;;;;;;;;;22.80;49.40;;;;;;5011653;28;20020;-75
2023/03/31 13:35:41;;;;;;;;;;;22.70;49.40;;;;;;5018902;28;19909;-75
2023/03/31 13:38:12;;;;;;;;;;;22.70;49.60;;;;;;5036625;28;20293;-75
2023/03/31 13:40:38;;;;;;;;;;;22.70;49.50;;;;;;5011133;28;20026;-76
2023/03/31 13:43:16;;;;;;;;;;;22.80;49.50;;;;;;5016238;28;20391;-76
2023/03/31 13:45:45;;;;;;;;;;;22.80;49.50;;;;;;5012446;28;20004;-76
2023/03/31 13:48:28;;;;;;;;;;;22.80;49.30;;;;;;5002392;28;19924;-76
2023/03/31 13:51:26;;;;;;;;;;;22.90;49.30;;;;;;5009878;28;19909;-76
2023/03/31 13:53:58;;;;;;;;;;;22.90;49.20;;;;;;5026910;28;19917;-76
2023/03/31 13:56:42;;;;;;;;;;;22.90;49.20;;;;;;5013536;28;20298;-76
2023/03/31 13:59:10;;;;;;;;;;;23.00;49.20;;;;;;5010278;28;19918;-76
2023/03/31 14:01:45;;;;;;;;;;;22.90;49.20;;;;;;5015415;28;20802;-76
2023/03/31 14:04:15;;;;;;;;;;;22.90;49.20;;;;;;5012732;28;19914;-75
2023/03/31 14:06:54;;;;;;;;;;;22.90;49.30;;;;;;5002569;28;20430;-75
2023/03/31 14:09:30;;;;;;;;;;;22.80;49.40;;;;;;5009138;28;19924;-75
2023/03/31 14:11:57;;;;;;;;;;;22.80;49.60;;;;;;5012026;28;19974;-75
2023/03/31 14:14:23;;;;;;;;;;;22.60;49.80;;;;;;5020038;28;19924;-76
2023/03/31 14:16:52;;;;;;;;;;;22.60;49.80;;;;;;5024062;28;20004;-76
2023/03/31 14:19:18;;;;;;;;;;;22.60;50.10;;;;;;5008419;28;19973;-75
2023/03/31 14:21:48;;;;;;;;;;;22.50;50.10;;;;;;5009618;28;19921;-76
2023/03/31 14:24:25;;;;;;;;;;;22.40;50.30;;;;;;4994788;28;21332;-75